Time;durP1;ratioP1;P1;durP2;ratioP2;P2;SDS_P1;SDS_P2;PMS_P1;PMS_P2;Temp;Humidity;BMP_temperature;BMP_pressure;BME280_temperature;BME280_humidity;BME280_pressure;Samples;Min_cycle;Max_cycle;Signal;HPM_P1;HPM_P2
2024/01/31 00:00:08;;;;;;;0.20;0.20;;;;;;;11.19;100.00;103440.44;5093940;28;20020;-64
2024/01/31 00:02:33;;;;;;;0.50;0.50;;;;;;;11.00;100.00;103447.97;5093945;28;20039;-66
2024/01/31 00:04:59;;;;;;;0.30;0.30;;;;;;;10.79;100.00;103453.78;5094032;28;20076;-65
2024/01/31 00:07:24;;;;;;;0.40;0.40;;;;;;;11.27;100.00;103453.06;5076911;28;20020;-65
2024/01/31 00:09:50;;;;;;;0.30;0.30;;;;;;;11.18;100.00;103448.69;5073299;28;20425;-66
2024/01/31 00:12:15;;;;;;;0.32;0.32;;;;;;;11.57;100.00;103448.91;5073214;28;20052;-65
2024/01/31 00:14:44;;;;;;;0.30;0.30;;;;;;;10.99;100.00;103454.34;5073594;28;20522;-65
2024/01/31 00:17:09;;;;;;;0.40;0.40;;;;;;;11.10;100.00;103457.59;5073316;28;20070;-65
2024/01/31 00:19:34;;;;;;;0.30;0.30;;;;;;;11.12;100.00;103469.03;5073156;28;20680;-65
2024/01/31 00:22:00;;;;;;;0.43;0.43;;;;;;;11.03;100.00;103472.69;5073529;28;20098;-65
2024/01/31 00:24:26;;;;;;;0.30;0.30;;;;;;;10.80;100.00;103473.47;5073259;28;20488;-67
2024/01/31 00:26:51;;;;;;;0.30;0.30;;;;;;;11.07;100.00;103475.91;5073184;28;20032;-65
2024/01/31 00:29:17;;;;;;;0.32;0.32;;;;;;;11.39;100.00;103484.06;5073066;28;20055;-67
2024/01/31 00:31:42;;;;;;;0.40;0.40;;;;;;;11.29;100.00;103491.44;5072877;28;20033;-65
2024/01/31 00:34:08;;;;;;;0.40;0.40;;;;;;;11.01;100.00;103493.53;5055000;28;20480;-64
2024/01/31 00:36:33;;;;;;;0.30;0.30;;;;;;;11.08;100.00;103499.13;5072917;28;20047;-66
2024/01/31 00:38:59;;;;;;;0.30;0.30;;;;;;;11.31;100.00;103506.41;5072930;28;20029;-66
2024/01/31 00:41:25;;;;;;;0.43;0.43;;;;;;;11.12;100.00;103503.19;5072904;28;20036;-65
2024/01/31 00:43:51;;;;;;;0.30;0.30;;;;;;;11.13;100.00;103502.16;5072924;28;20024;-65
2024/01/31 00:46:17;;;;;;;0.40;0.40;;;;;;;11.05;100.00;103504.81;5072648;28;20040;-65
2024/01/31 00:48:43;;;;;;;0.40;0.40;;;;;;;11.49;100.00;103503.59;5072817;28;20064;-65
2024/01/31 00:51:11;;;;;;;0.40;0.40;;;;;;;11.46;100.00;103510.16;5072684;28;20059;-65
2024/01/31 00:53:38;;;;;;;0.38;0.38;;;;;;;11.37;100.00;103511.16;5072965;28;20115;-65
2024/01/31 00:56:03;;;;;;;0.30;0.30;;;;;;;11.42;100.00;103507.94;5072489;28;20028;-66
2024/01/31 00:58:29;;;;;;;0.52;0.52;;;;;;;11.18;100.00;103515.97;5072621;28;20496;-66
2024/01/31 01:00:54;;;;;;;0.40;0.40;;;;;;;11.51;100.00;103520.44;5072776;28;20431;-65
2024/01/31 01:03:20;;;;;;;0.30;0.30;;;;;;;10.89;100.00;103519.06;5072208;28;20059;-66
2024/01/31 01:05:45;;;;;;;0.40;0.40;;;;;;;10.36;100.00;103515.75;5072291;28;20095;-66
2024/01/31 01:08:11;;;;;;;0.30;0.30;;;;;;;10.49;100.00;103514.34;5072425;28;20057;-65
2024/01/31 01:10:36;;;;;;;0.40;0.40;;;;;;;10.27;100.00;103517.56;5072242;28;20040;-66
2024/01/31 01:13:02;;;;;;;0.47;0.47;;;;;;;10.36;100.00;103511.22;5072476;28;20036;-67
2024/01/31 01:15:27;;;;;;;0.60;0.60;;;;;;;10.83;100.00;103516.19;5072402;28;20805;-66
2024/01/31 01:17:53;;;;;;;0.50;0.50;;;;;;;10.60;100.00;103508.69;5053704;28;20044;-66
2024/01/31 01:20:18;;;;;;;0.40;0.40;;;;;;;11.31;100.00;103514.50;5072176;28;20044;-66
2024/01/31 01:22:44;;;;;;;0.30;0.30;;;;;;;11.02;100.00;103507.84;5072375;28;20040;-68
2024/01/31 01:25:10;;;;;;;0.40;0.40;;;;;;;10.40;100.00;103514.44;5072055;28;20048;-66
2024/01/31 01:27:35;;;;;;;0.43;0.43;;;;;;;10.39;100.00;103518.13;5072335;28;20496;-68
2024/01/31 01:30:01;;;;;;;0.70;0.70;;;;;;;10.81;100.00;103504.75;5071982;28;20036;-69
2024/01/31 01:32:26;;;;;;;0.30;0.30;;;;;;;10.20;100.00;103497.66;5071966;28;20426;-67
2024/01/31 01:34:51;;;;;;;0.30;0.30;;;;;;;10.28;100.00;103496.91;5053212;28;20040;-67
2024/01/31 01:37:17;;;;;;;0.32;0.32;;;;;;;10.15;100.00;103504.53;5071565;28;20111;-67
2024/01/31 01:39:45;;;;;;;0.28;0.28;;;;;;;10.06;100.00;103514.34;5054030;28;20151;-68
2024/01/31 01:42:11;;;;;;;0.50;0.50;;;;;;;9.85;100.00;103502.25;5071526;28;20475;-67
2024/01/31 01:44:44;;;;;;;0.40;0.40;;;;;;;11.02;100.00;103494.41;5037077;28;20036;-67
2024/01/31 01:47:10;;;;;;;0.20;0.20;;;;;;;11.33;100.00;103490.94;5071548;28;20036;-67
2024/01/31 01:49:37;;;;;;;0.30;0.30;;;;;;;11.02;100.00;103494.41;5071521;28;20035;-68
2024/01/31 01:52:03;;;;;;;0.32;0.32;;;;;;;11.16;100.00;103491.06;5071680;28;20043;-65
2024/01/31 01:54:28;;;;;;;0.47;0.47;;;;;;;11.53;100.00;103496.88;5070853;28;20095;-66
2024/01/31 01:56:54;;;;;;;0.50;0.50;;;;;;;11.69;100.00;103496.91;5071562;28;20032;-67
2024/01/31 01:59:19;;;;;;;0.40;0.40;;;;;;;11.83;100.00;103500.78;5071265;28;20036;-66
2024/01/31 02:01:46;;;;;;;0.30;0.30;;;;;;;11.41;100.00;103501.72;5070479;28;20342;-68
2024/01/31 02:04:12;;;;;;;0.20;0.20;;;;;;;11.49;100.00;103499.06;5050972;28;20039;-66
2024/01/31 02:06:38;;;;;;;0.20;0.20;;;;;;;11.91;100.00;103500.78;5051512;28;20095;-65
2024/01/31 02:09:03;;;;;;;0.30;0.30;;;;;;;11.97;100.00;103503.63;5051219;28;20477;-68
2024/01/31 02:11:31;;;;;;;0.32;0.32;;;;;;;11.89;100.00;103489.34;5051054;28;20457;-67
2024/01/31 02:14:00;;;;;;;0.30;0.30;;;;;;;11.77;100.00;103499.63;5033037;28;20042;-65
2024/01/31 02:16:26;;;;;;;0.38;0.38;;;;;;;11.47;100.00;103500.22;5051232;28;20040;-66
2024/01/31 02:18:51;;;;;;;0.30;0.30;;;;;;;11.49;100.00;103500.91;5051150;28;20558;-67
2024/01/31 02:21:17;;;;;;;0.20;0.20;;;;;;;11.61;100.00;103496.03;5050983;28;20041;-66
2024/01/31 02:23:42;;;;;;;0.43;0.43;;;;;;;11.77;100.00;103496.94;5051005;28;20071;-67
2024/01/31 02:26:07;;;;;;;0.50;0.50;;;;;;;11.76;100.00;103505.16;5050900;28;20473;-66
2024/01/31 02:28:33;;;;;;;0.30;0.30;;;;;;;11.78;100.00;103500.44;5050778;28;20036;-68
2024/01/31 02:30:58;;;;;;;0.20;0.20;;;;;;;11.75;100.00;103504.34;5050994;28;20116;-66
2024/01/31 02:33:23;;;;;;;0.22;0.22;;;;;;;11.79;100.00;103504.84;5050640;28;20064;-67
2024/01/31 02:35:49;;;;;;;0.30;0.30;;;;;;;11.18;100.00;103503.34;5050575;28;20043;-66
2024/01/31 02:38:14;;;;;;;0.38;0.38;;;;;;;11.44;100.00;103506.78;5050543;28;20047;-67
2024/01/31 02:40:40;;;;;;;0.40;0.40;;;;;;;11.54;100.00;103511.19;5050711;28;20095;-67
2024/01/31 02:43:05;;;;;;;0.22;0.22;;;;;;;11.60;100.00;103495.19;5050760;28;20127;-67
2024/01/31 02:45:30;;;;;;;0.20;0.20;;;;;;;11.75;100.00;103495.41;5050702;28;20128;-67
2024/01/31 02:47:56;;;;;;;0.30;0.30;;;;;;;11.36;100.00;103493.28;5050492;28;20107;-67
2024/01/31 02:50:21;;;;;;;0.30;0.30;;;;;;;11.62;100.00;103479.69;5050460;28;20116;-67
2024/01/31 02:52:48;;;;;;;0.20;0.20;;;;;;;11.66;100.00;103481.06;5050580;28;20091;-67
2024/01/31 02:55:14;;;;;;;0.35;0.35;;;;;;;11.68;100.00;103470.97;5050452;28;20029;-67
2024/01/31 02:57:39;;;;;;;0.45;0.45;;;;;;;11.60;100.00;103465.56;5050529;28;20033;-67
2024/01/31 03:00:06;;;;;;;0.40;0.40;;;;;;;11.60;100.00;103462.00;5050233;28;20099;-67
2024/01/31 03:02:32;;;;;;;0.30;0.30;;;;;;;11.33;100.00;103469.41;5056994;28;20084;-67
2024/01/31 03:04:57;;;;;;;0.32;0.32;;;;;;;10.84;100.00;103475.66;5051768;28;20071;-67
2024/01/31 03:07:22;;;;;;;0.32;0.32;;;;;;;11.50;100.00;103463.03;5070030;28;20120;-66
2024/01/31 03:09:48;;;;;;;0.30;0.30;;;;;;;11.12;100.00;103469.03;5070176;28;20119;-68
2024/01/31 03:12:13;;;;;;;0.38;0.38;;;;;;;10.98;100.00;103475.06;5070110;28;20744;-67
2024/01/31 03:14:38;;;;;;;0.40;0.40;;;;;;;10.86;100.00;103472.81;5070472;28;20032;-68
2024/01/31 03:17:04;;;;;;;0.40;0.40;;;;;;;10.96;100.00;103468.16;5070111;28;20059;-67
2024/01/31 03:19:31;;;;;;;0.47;0.47;;;;;;;10.82;100.00;103469.59;5070120;28;20090;-65
2024/01/31 03:21:58;;;;;;;0.40;0.40;;;;;;;10.64;100.00;103460.78;5070483;28;20384;-67
2024/01/31 03:24:24;;;;;;;0.30;0.30;;;;;;;10.34;100.00;103456.78;5070175;28;20032;-66
2024/01/31 03:26:49;;;;;;;0.43;0.43;;;;;;;10.57;100.00;103457.91;5070171;28;20036;-66
2024/01/31 03:29:15;;;;;;;0.40;0.40;;;;;;;10.28;100.00;103456.59;5070086;28;20364;-67
2024/01/31 03:31:40;;;;;;;0.20;0.20;;;;;;;10.63;100.00;103450.22;5070010;28;20568;-68
2024/01/31 03:34:06;;;;;;;0.32;0.32;;;;;;;10.84;100.00;103458.69;5062429;28;20104;-66
2024/01/31 03:36:35;;;;;;;0.30;0.30;;;;;;;10.41;100.00;103457.84;5067138;28;20084;-67
2024/01/31 03:39:00;;;;;;;0.50;0.50;;;;;;;10.81;100.00;103453.66;5070068;28;20040;-68
2024/01/31 03:41:26;;;;;;;0.70;0.70;;;;;;;10.26;100.00;103458.59;5069929;28;20032;-66
2024/01/31 03:43:52;;;;;;;0.40;0.40;;;;;;;10.66;100.00;103455.25;5069966;28;20037;-67
2024/01/31 03:46:17;;;;;;;0.32;0.32;;;;;;;10.27;100.00;103450.38;5069814;28;20036;-67
2024/01/31 03:48:43;;;;;;;0.35;0.35;;;;;;;10.16;100.00;103457.88;5070008;28;20569;-67
2024/01/31 03:51:19;;;;;;;0.30;0.30;;;;;;;10.88;100.00;103452.81;5069814;28;20037;-66
2024/01/31 03:53:45;;;;;;;0.40;0.40;;;;;;;10.57;100.00;103451.69;5070021;28;20528;-67
2024/01/31 03:56:10;;;;;;;0.50;0.50;;;;;;;10.27;100.00;103452.22;5069378;28;20040;-67
2024/01/31 03:58:35;;;;;;;0.30;0.30;;;;;;;10.47;100.00;103451.81;5069763;28;20040;-67
2024/01/31 04:01:01;;;;;;;0.30;0.30;;;;;;;10.52;100.00;103444.09;5069908;28;20040;-67
2024/01/31 04:03:27;;;;;;;0.30;0.30;;;;;;;10.30;100.00;103449.22;5069373;28;20059;-66
2024/01/31 04:05:53;;;;;;;0.30;0.30;;;;;;;9.95;100.00;103447.44;5069775;28;20758;-67
2024/01/31 04:08:18;;;;;;;0.20;0.20;;;;;;;9.67;100.00;103440.50;5069576;28;20478;-67
2024/01/31 04:10:44;;;;;;;0.50;0.50;;;;;;;8.99;100.00;103444.75;5069432;28;20135;-66
2024/01/31 04:13:09;;;;;;;0.43;0.43;;;;;;;10.02;100.00;103442.28;5067828;28;20055;-65
2024/01/31 04:15:36;;;;;;;0.50;0.50;;;;;;;9.71;100.00;103433.81;5069782;28;20158;-65
2024/01/31 04:18:02;;;;;;;0.50;0.50;;;;;;;10.20;100.00;103435.06;5072227;28;20071;-66
2024/01/31 04:20:28;;;;;;;0.30;0.30;;;;;;;10.79;100.00;103428.75;5073487;28;20495;-67
2024/01/31 04:22:53;;;;;;;0.50;0.50;;;;;;;10.39;100.00;103427.59;5073315;28;20111;-67
2024/01/31 04:25:18;;;;;;;0.50;0.50;;;;;;;10.81;100.00;103424.88;5073100;28;20052;-68
2024/01/31 04:27:44;;;;;;;0.40;0.40;;;;;;;10.82;100.00;103431.94;5073311;28;20041;-67
2024/01/31 04:30:10;;;;;;;0.35;0.35;;;;;;;10.73;100.00;103426.72;5073127;28;20491;-68
2024/01/31 04:32:36;;;;;;;0.30;0.30;;;;;;;10.16;100.00;103426.44;5072965;28;20036;-66
2024/01/31 04:35:01;;;;;;;0.30;0.30;;;;;;;10.81;100.00;103432.13;5072988;28;20032;-66
2024/01/31 04:37:26;;;;;;;0.35;0.35;;;;;;;10.52;100.00;103430.66;5072868;28;20036;-67
2024/01/31 04:39:52;;;;;;;0.30;0.30;;;;;;;10.12;100.00;103435.81;5073312;28;20025;-66
2024/01/31 04:42:17;;;;;;;0.38;0.38;;;;;;;10.32;100.00;103425.69;5072834;28;20108;-67
2024/01/31 04:44:45;;;;;;;0.50;0.50;;;;;;;10.25;100.00;103427.34;5072993;28;20035;-67
2024/01/31 04:47:11;;;;;;;0.50;0.50;;;;;;;10.63;100.00;103427.69;5072761;28;20028;-67
2024/01/31 04:49:36;;;;;;;0.30;0.30;;;;;;;10.03;100.00;103435.91;5072766;28;20064;-67
2024/01/31 04:52:02;;;;;;;0.20;0.20;;;;;;;10.05;100.00;103433.91;5072483;28;20528;-66
2024/01/31 04:54:27;;;;;;;0.35;0.35;;;;;;;10.33;100.00;103432.75;5072926;28;20123;-68
2024/01/31 04:56:53;;;;;;;0.47;0.47;;;;;;;10.66;100.00;103431.91;5072472;28;20059;-66
2024/01/31 04:59:19;;;;;;;0.30;0.30;;;;;;;10.44;100.00;103429.78;5072469;28;20028;-68
2024/01/31 05:01:44;;;;;;;0.40;0.40;;;;;;;10.23;100.00;103429.34;5068413;28;20099;-66
2024/01/31 05:04:10;;;;;;;0.43;0.43;;;;;;;9.96;100.00;103424.13;5052274;28;20183;-66
2024/01/31 05:06:35;;;;;;;0.60;0.60;;;;;;;10.42;100.00;103427.25;5055813;28;20033;-67
2024/01/31 05:09:01;;;;;;;0.43;0.43;;;;;;;10.06;100.00;103431.06;5071350;28;20016;-66
2024/01/31 05:11:26;;;;;;;0.40;0.40;;;;;;;10.63;100.00;103416.09;5057756;28;20041;-66
2024/01/31 05:13:51;;;;;;;0.50;0.50;;;;;;;10.36;100.00;103421.66;5071193;28;20034;-67
2024/01/31 05:16:17;;;;;;;0.40;0.40;;;;;;;10.25;100.00;103422.81;5071190;28;20028;-66
2024/01/31 05:18:42;;;;;;;0.30;0.30;;;;;;;10.43;100.00;103420.91;5071800;28;20480;-66
2024/01/31 05:21:11;;;;;;;0.38;0.38;;;;;;;10.72;100.00;103422.31;5072061;28;20043;-67
2024/01/31 05:23:37;;;;;;;0.40;0.40;;;;;;;9.99;100.00;103404.97;5072306;28;20032;-68
2024/01/31 05:26:07;;;;;;;0.40;0.40;;;;;;;10.24;100.00;103404.16;5071960;28;20031;-67
2024/01/31 05:28:33;;;;;;;0.50;0.50;;;;;;;10.27;100.00;103410.06;5071421;28;20103;-67
2024/01/31 05:30:58;;;;;;;0.45;0.45;;;;;;;9.88;100.00;103402.56;5071076;28;20024;-66
2024/01/31 05:33:24;;;;;;;0.25;0.25;;;;;;;10.70;100.00;103400.13;5052815;28;20488;-67
2024/01/31 05:35:49;;;;;;;0.30;0.30;;;;;;;10.51;100.00;103394.00;5071694;28;20449;-66
2024/01/31 05:38:14;;;;;;;0.35;0.35;;;;;;;10.75;100.00;103395.94;5071456;28;20422;-65
2024/01/31 05:40:42;;;;;;;0.25;0.25;;;;;;;10.58;100.00;103394.22;5073130;28;20115;-65
2024/01/31 05:43:07;;;;;;;0.40;0.40;;;;;;;10.21;100.00;103393.72;5080731;28;20495;-66
2024/01/31 05:45:35;;;;;;;0.40;0.40;;;;;;;10.29;100.00;103404.53;5080872;28;20103;-66
2024/01/31 05:48:01;;;;;;;0.30;0.30;;;;;;;10.10;100.00;103405.56;5081694;28;20116;-66
2024/01/31 05:50:27;;;;;;;0.30;0.30;;;;;;;9.47;100.00;103412.19;5080523;28;20073;-66
2024/01/31 05:52:52;;;;;;;0.28;0.28;;;;;;;9.70;100.00;103405.31;5080286;28;20035;-65
2024/01/31 05:55:18;;;;;;;0.30;0.30;;;;;;;9.83;100.00;103404.91;5080963;28;20035;-67
2024/01/31 05:57:48;;;;;;;0.30;0.30;;;;;;;9.92;100.00;103394.06;5076415;28;20027;-67
2024/01/31 06:00:14;;;;;;;0.55;0.55;;;;;;;10.14;100.00;103400.75;5079597;28;20476;-66
2024/01/31 06:02:39;;;;;;;0.20;0.20;;;;;;;10.21;100.00;103399.94;5078196;28;20127;-66
2024/01/31 06:05:05;;;;;;;0.32;0.32;;;;;;;10.31;100.00;103389.06;5079060;28;20028;-65
2024/01/31 06:07:30;;;;;;;0.43;0.43;;;;;;;10.71;100.00;103383.00;5076826;28;20105;-66
2024/01/31 06:09:56;;;;;;;0.30;0.30;;;;;;;9.84;100.00;103385.09;5075401;28;20099;-66
2024/01/31 06:12:21;;;;;;;0.40;0.40;;;;;;;9.98;100.00;103384.50;5078244;28;20089;-67
2024/01/31 06:14:46;;;;;;;0.30;0.30;;;;;;;9.75;100.00;103376.97;5078619;28;20035;-68
2024/01/31 06:17:14;;;;;;;0.40;0.40;;;;;;;10.71;100.00;103374.94;5072570;28;20040;-66
2024/01/31 06:19:39;;;;;;;0.50;0.50;;;;;;;10.89;100.00;103371.09;5075319;28;20163;-67
2024/01/31 06:22:05;;;;;;;0.32;0.32;;;;;;;10.25;100.00;103374.44;5069947;28;20120;-67
2024/01/31 06:24:30;;;;;;;0.30;0.30;;;;;;;10.28;100.00;103376.78;5070366;28;20119;-67
2024/01/31 06:26:55;;;;;;;0.30;0.30;;;;;;;10.21;100.00;103372.22;5069734;28;20039;-66
2024/01/31 06:29:21;;;;;;;0.47;0.47;;;;;;;10.13;100.00;103366.81;5067763;28;20024;-67
2024/01/31 06:31:47;;;;;;;0.47;0.47;;;;;;;9.81;100.00;103372.00;5068388;28;20518;-67
2024/01/31 06:34:14;;;;;;;0.40;0.40;;;;;;;9.76;100.00;103369.78;5065909;28;20032;-67
2024/01/31 06:36:39;;;;;;;0.47;0.47;;;;;;;9.70;100.00;103373.94;5079225;28;20028;-65
2024/01/31 06:39:05;;;;;;;0.22;0.22;;;;;;;10.42;100.00;103389.63;5080623;28;20028;-65
2024/01/31 06:41:31;;;;;;;0.30;0.30;;;;;;;9.70;100.00;103390.03;5078060;28;20040;-65
2024/01/31 06:43:57;;;;;;;0.20;0.20;;;;;;;9.75;100.00;103414.56;5076752;28;20066;-65
2024/01/31 06:46:22;;;;;;;0.30;0.30;;;;;;;9.66;100.00;103431.63;5074989;28;20184;-65
2024/01/31 06:48:48;;;;;;;0.40;0.40;;;;;;;9.83;100.00;103446.00;5075605;28;20128;-65
2024/01/31 06:51:13;;;;;;;0.43;0.43;;;;;;;9.77;100.00;103458.22;5070721;28;20079;-65
2024/01/31 06:53:38;;;;;;;0.25;0.25;;;;;;;10.32;100.00;103447.19;5069653;28;20058;-65
2024/01/31 06:56:04;;;;;;;0.30;0.30;;;;;;;10.37;100.00;103445.72;5069526;28;20028;-66
2024/01/31 06:58:31;;;;;;;0.30;0.30;;;;;;;10.25;100.00;103446.16;5069346;28;20028;-64
2024/01/31 07:00:59;;;;;;;0.30;0.30;;;;;;;9.67;100.00;103454.78;5069657;28;20036;-65
2024/01/31 07:03:25;;;;;;;0.32;0.32;;;;;;;9.59;100.00;103473.50;5050762;28;20450;-64
2024/01/31 07:05:50;;;;;;;0.40;0.40;;;;;;;9.90;100.00;103465.03;5069513;28;20102;-65
2024/01/31 07:08:16;;;;;;;0.40;0.40;;;;;;;9.72;100.00;103470.44;5069439;28;20063;-64
2024/01/31 07:10:41;;;;;;;0.30;0.30;;;;;;;9.56;100.00;103483.72;5073749;28;20040;-65
2024/01/31 07:13:06;;;;;;;0.38;0.38;;;;;;;10.45;100.00;103491.47;5081317;28;20112;-64
2024/01/31 07:15:32;;;;;;;0.20;0.20;;;;;;;10.69;100.00;103487.22;5085245;28;20051;-65
2024/01/31 07:17:57;;;;;;;0.30;0.30;;;;;;;9.88;100.00;103480.47;5069701;28;20111;-64
2024/01/31 07:20:22;;;;;;;0.30;0.30;;;;;;;10.23;100.00;103492.00;5084642;28;20071;-66
2024/01/31 07:22:48;;;;;;;0.40;0.40;;;;;;;10.58;100.00;103494.56;5089779;28;20111;-65
2024/01/31 07:25:15;;;;;;;0.30;0.30;;;;;;;10.70;100.00;103505.88;5089976;28;20052;-66
2024/01/31 07:27:41;;;;;;;0.30;0.30;;;;;;;10.42;100.00;103507.91;5090398;28;20120;-66
2024/01/31 07:30:10;;;;;;;0.50;0.50;;;;;;;10.19;100.00;103509.44;5084673;28;20044;-65
2024/01/31 07:32:36;;;;;;;0.30;0.30;;;;;;;10.61;100.00;103517.59;5070123;28;20062;-66
2024/01/31 07:35:03;;;;;;;0.30;0.30;;;;;;;10.29;100.00;103523.63;5070119;28;20032;-66
2024/01/31 07:37:28;;;;;;;0.50;0.50;;;;;;;10.38;100.00;103519.97;5069601;28;20035;-65
2024/01/31 07:39:56;;;;;;;0.30;0.30;;;;;;;10.37;100.00;103518.31;5075300;28;20131;-66
2024/01/31 07:42:22;;;;;;;0.22;0.22;;;;;;;10.01;100.00;103519.34;5081951;28;20035;-65
2024/01/31 07:44:47;;;;;;;0.40;0.40;;;;;;;10.64;100.00;103517.25;5089965;28;20074;-65
2024/01/31 07:47:13;;;;;;;0.52;0.52;;;;;;;10.80;100.00;103511.13;5089841;28;20032;-66
2024/01/31 07:49:41;;;;;;;0.40;0.40;;;;;;;10.75;100.00;103497.31;5090130;28;20562;-66
2024/01/31 07:52:06;;;;;;;0.30;0.30;;;;;;;10.72;100.00;103493.09;5091636;28;20032;-64
2024/01/31 07:54:31;;;;;;;0.60;0.60;;;;;;;10.95;100.00;103490.66;5090975;28;20034;-65
2024/01/31 07:56:57;;;;;;;0.47;0.47;;;;;;;11.04;100.00;103492.38;5073619;28;20135;-65
2024/01/31 07:59:22;;;;;;;0.30;0.30;;;;;;;11.10;100.00;103500.66;5073712;28;20755;-66
2024/01/31 08:01:47;;;;;;;0.40;0.40;;;;;;;11.00;100.00;103491.03;5073757;28;20116;-65
2024/01/31 08:04:13;;;;;;;0.40;0.40;;;;;;;11.43;100.00;103497.03;5073220;28;20151;-66
2024/01/31 08:06:42;;;;;;;0.40;0.40;;;;;;;11.76;100.00;103489.84;5073868;28;20075;-65
2024/01/31 08:09:07;;;;;;;0.28;0.28;;;;;;;11.89;100.00;103486.66;5073446;28;20060;-65
2024/01/31 08:11:33;;;;;;;0.45;0.45;;;;;;;11.80;100.00;103485.78;5073357;28;20021;-65
2024/01/31 08:13:58;;;;;;;0.30;0.30;;;;;;;11.72;100.00;103484.94;5073564;28;20115;-66
2024/01/31 08:16:23;;;;;;;0.22;0.22;;;;;;;11.24;100.00;103489.22;5073318;28;20108;-66
2024/01/31 08:18:49;;;;;;;0.40;0.40;;;;;;;12.13;100.00;103473.13;5073540;28;20701;-65
2024/01/31 08:21:14;;;;;;;0.30;0.30;;;;;;;12.03;100.00;103480.53;5073231;28;20044;-65
2024/01/31 08:23:40;;;;;;;0.40;0.40;;;;;;;12.37;100.00;103470.38;5073270;28;20021;-66
2024/01/31 08:26:06;;;;;;;0.50;0.50;;;;;;;12.17;100.00;103469.06;5073026;28;20420;-66
2024/01/31 08:28:31;;;;;;;0.30;0.30;;;;;;;11.76;100.00;103467.44;5073052;28;20032;-64
2024/01/31 08:30:56;;;;;;;0.60;0.60;;;;;;;12.15;100.00;103463.88;5073220;28;20032;-65
2024/01/31 08:33:22;;;;;;;0.35;0.35;;;;;;;12.50;100.00;103442.88;5072978;28;20040;-66
2024/01/31 08:35:47;;;;;;;0.30;0.30;;;;;;;12.07;100.00;103452.25;5072660;28;20460;-64
2024/01/31 08:38:12;;;;;;;0.25;0.25;;;;;;;12.22;100.00;103450.53;5072938;28;20040;-65
2024/01/31 08:40:39;;;;;;;0.28;0.28;;;;;;;12.26;100.00;103444.63;5073055;28;20147;-66
2024/01/31 08:43:04;;;;;;;0.40;0.40;;;;;;;12.17;100.00;103455.59;5072563;28;20054;-65
2024/01/31 08:45:29;;;;;;;0.38;0.38;;;;;;;11.82;100.00;103456.84;5072973;28;20116;-66
2024/01/31 08:47:55;;;;;;;0.35;0.35;;;;;;;12.12;100.00;103439.97;5072649;28;20123;-65
2024/01/31 08:50:20;;;;;;;0.30;0.30;;;;;;;12.35;100.00;103434.66;5072802;28;20127;-65
2024/01/31 08:52:45;;;;;;;0.20;0.20;;;;;;;11.75;100.00;103426.22;5072690;28;20108;-65
2024/01/31 08:55:13;;;;;;;0.28;0.28;;;;;;;11.84;100.00;103414.41;5072679;28;20115;-64
2024/01/31 08:57:38;;;;;;;0.40;0.40;;;;;;;11.54;100.00;103416.94;5072626;28;20040;-64
2024/01/31 09:00:05;;;;;;;0.47;0.47;;;;;;;11.80;100.00;103428.38;5072655;28;20046;-66
2024/01/31 09:02:30;;;;;;;0.20;0.20;;;;;;;11.42;100.00;103425.31;5084276;28;20058;-65
2024/01/31 09:04:55;;;;;;;0.45;0.45;;;;;;;11.64;100.00;103415.72;5091968;28;20059;-65
2024/01/31 09:07:21;;;;;;;0.47;0.47;;;;;;;11.17;100.00;103423.63;5092795;28;20121;-65
2024/01/31 09:09:46;;;;;;;0.50;0.50;;;;;;;11.66;100.00;103429.06;5092989;28;20019;-65
2024/01/31 09:12:12;;;;;;;0.30;0.30;;;;;;;12.07;100.00;103433.38;5092323;28;20111;-66
2024/01/31 09:14:38;;;;;;;0.20;0.20;;;;;;;11.74;100.00;103434.44;5092647;28;20055;-65
2024/01/31 09:17:04;;;;;;;0.30;0.30;;;;;;;12.27;100.00;103434.69;5055937;28;20083;-65
2024/01/31 09:19:29;;;;;;;0.50;0.50;;;;;;;12.02;100.00;103441.16;5072287;28;20447;-67
2024/01/31 09:21:54;;;;;;;0.43;0.43;;;;;;;11.80;100.00;103442.69;5072600;28;20043;-67
2024/01/31 09:24:20;;;;;;;0.25;0.25;;;;;;;11.57;100.00;103443.50;5072732;28;20034;-68
2024/01/31 09:26:45;;;;;;;0.30;0.30;;;;;;;11.88;100.00;103423.81;5071831;28;20111;-68
2024/01/31 09:29:11;;;;;;;0.20;0.20;;;;;;;12.12;100.00;103414.84;5078147;28;20103;-67
2024/01/31 09:31:36;;;;;;;0.30;0.30;;;;;;;11.88;100.00;103409.50;5074137;28;20159;-68
2024/01/31 09:34:02;;;;;;;0.28;0.28;;;;;;;11.80;100.00;103415.75;5071872;28;20111;-68
2024/01/31 09:36:27;;;;;;;0.40;0.40;;;;;;;12.09;100.00;103420.56;5071522;28;20108;-69
2024/01/31 09:38:53;;;;;;;0.60;0.60;;;;;;;10.97;100.00;103424.91;5071811;28;20064;-68
2024/01/31 09:41:19;;;;;;;0.47;0.47;;;;;;;11.47;100.00;103428.38;5080349;28;20459;-69
2024/01/31 09:43:45;;;;;;;0.40;0.40;;;;;;;11.49;100.00;103431.75;5091910;28;20070;-68
2024/01/31 09:46:11;;;;;;;0.38;0.38;;;;;;;11.76;100.00;103421.63;5091868;28;20118;-67
2024/01/31 09:48:39;;;;;;;0.30;0.30;;;;;;;12.21;100.00;103411.09;5075313;28;20488;-69
2024/01/31 09:51:04;;;;;;;0.43;0.43;;;;;;;12.25;100.00;103416.00;5071579;28;20400;-69
2024/01/31 09:53:36;;;;;;;0.40;0.40;;;;;;;12.37;100.00;103413.75;5070959;28;20032;-68
2024/01/31 09:56:02;;;;;;;0.40;0.40;;;;;;;12.02;100.00;103408.81;5071373;28;20476;-68
2024/01/31 09:58:27;;;;;;;0.35;0.35;;;;;;;11.35;100.00;103410.00;5071089;28;20048;-69
2024/01/31 10:00:54;;;;;;;0.35;0.35;;;;;;;12.04;100.00;103410.31;5071343;28;20028;-68
2024/01/31 10:03:19;;;;;;;0.57;0.57;;;;;;;11.05;100.00;103422.25;5070937;28;20493;-69
2024/01/31 10:05:44;;;;;;;0.40;0.40;;;;;;;10.88;100.00;103417.84;5052639;28;20041;-68
2024/01/31 10:08:10;;;;;;;0.40;0.40;;;;;;;11.43;100.00;103426.19;5071101;28;20396;-68
2024/01/31 10:10:39;;;;;;;0.30;0.30;;;;;;;12.09;100.00;103426.81;5071233;28;20452;-68
2024/01/31 10:13:09;;;;;;;0.30;0.30;;;;;;;12.12;100.00;103425.63;5070775;28;20089;-68
2024/01/31 10:15:34;;;;;;;0.30;0.30;;;;;;;11.95;100.00;103421.31;5070660;28;20067;-68
2024/01/31 10:18:00;;;;;;;0.20;0.20;;;;;;;11.23;100.00;103420.28;5078245;28;20060;-68
2024/01/31 10:20:25;;;;;;;0.40;0.40;;;;;;;11.59;100.00;103419.94;5091173;28;20122;-67
2024/01/31 10:22:51;;;;;;;0.30;0.30;;;;;;;11.92;100.00;103421.63;5085727;28;20088;-69
2024/01/31 10:25:18;;;;;;;0.30;0.30;;;;;;;11.50;100.00;103417.25;5070731;28;20405;-68
2024/01/31 10:27:49;;;;;;;0.45;0.45;;;;;;;11.57;100.00;103408.50;5070644;28;20093;-69
2024/01/31 10:30:15;;;;;;;0.40;0.40;;;;;;;11.29;100.00;103405.28;5070213;28;20032;-68
2024/01/31 10:32:41;;;;;;;0.50;0.50;;;;;;;11.49;100.00;103399.44;5070579;28;20079;-69
2024/01/31 10:35:07;;;;;;;0.30;0.30;;;;;;;10.97;100.00;103400.72;5070461;28;20384;-68
2024/01/31 10:37:33;;;;;;;0.40;0.40;;;;;;;12.00;100.00;103400.06;5070299;28;20511;-68
2024/01/31 10:40:04;;;;;;;0.40;0.40;;;;;;;11.78;100.00;103396.22;5070803;28;20036;-69
2024/01/31 10:42:30;;;;;;;0.45;0.45;;;;;;;11.98;100.00;103386.75;5070219;28;20051;-71
2024/01/31 10:44:56;;;;;;;0.32;0.32;;;;;;;11.97;100.00;103382.38;5052490;28;20365;-68
2024/01/31 10:47:21;;;;;;;0.30;0.30;;;;;;;12.00;100.00;103381.19;5070241;28;20384;-68
2024/01/31 10:49:46;;;;;;;0.22;0.22;;;;;;;12.06;100.00;103367.03;5070306;28;20060;-68
2024/01/31 10:52:15;;;;;;;0.55;0.55;;;;;;;12.06;100.00;103358.94;5072983;28;20039;-67
2024/01/31 10:54:50;;;;;;;0.50;0.50;;;;;;;12.51;100.00;103356.38;5049870;28;20079;-68
2024/01/31 10:57:16;;;;;;;0.40;0.40;;;;;;;12.42;100.00;103352.06;5059128;28;20028;-68
2024/01/31 10:59:41;;;;;;;0.43;0.43;;;;;;;12.22;100.00;103353.50;5081305;28;20084;-69
2024/01/31 11:02:14;;;;;;;0.25;0.25;;;;;;;12.10;100.00;103344.94;5083544;28;20028;-68
2024/01/31 11:04:39;;;;;;;0.40;0.40;;;;;;;11.98;100.00;103349.03;5090029;28;20043;-68
2024/01/31 11:07:05;;;;;;;0.38;0.38;;;;;;;12.70;100.00;103331.66;5089926;28;20040;-68
2024/01/31 11:09:31;;;;;;;0.30;0.30;;;;;;;12.31;100.00;103330.88;5090220;28;20086;-68